COMO2: Grand River, Commerce, OK

Data processed at Mon Sep 23 2019 23:55


All information presented herein is the property of the government of the United States of America and may be revised or deleted at any time without prior notice.
Dissemination of this information without the expressed written consent of the Public Affairs Office, Tulsa District U.S. Army Corps of Engineers is strictly prohibited.
These data are gathered electronically and, as presented, have not undergone any form of quality control. These data are not guaranteed to be valid or correct.
Go to home page.
Go to station list.
Go to home page.

Upstream stations:

Downstream station:
Previous Day
Next Day
Current Day
    
SHEF ID:       COMO2     Neosho River nr Commerce, OK
STATION TYPE:  
Regulating: Stage =    15.00, Flow =    22115

               PRECIP     STAGE  STAGE(2)  RIV-FLOW  BAT-LOAD
                   in        ft        ft       cfs      volt
              Ccp-Rev   Ccp-Rev   Ccp-Rev   Ccp-Rev   Ccp-Rev
(US/Central)
09/23 00:00      0.00      9.73      9.73     12043     12.57
09/23 01:00      0.00     10.49     10.46     13341     12.57
09/23 02:00      0.00     11.23     11.21     14574     12.49
09/23 03:00      0.00     11.90     11.91     15696     12.49
09/23 04:00      0.00     12.54     12.59     17315     12.49
09/23 05:00      0.00     13.10     13.14     18397     12.49
09/23 06:00      0.00     13.62     13.67     19407     12.49
09/23 07:00      0.00     14.05     14.14     20247     12.49
09/23 08:00      0.00     14.52     14.53     21169     12.57
09/23 09:00      0.00     14.87     14.92     21858     12.73
09/23 10:00      0.00     15.19     15.20     22490     13.05
09/23 11:00      0.00     15.47     15.43     23045     13.60
09/23 12:00      0.00     15.73     15.69     23561     13.53
09/23 13:00      0.00     15.92     15.92     23939     13.53
09/23 14:00      0.00     16.11     16.07     24318     13.13
09/23 15:00      0.01     16.25     16.28     24597     12.97
09/23 16:00      0.00     16.44     16.47     24977     12.81
09/23 17:00      0.00     16.55     16.59     25197     12.81
09/23 18:00      0.00     16.74     16.74     25578     12.73
09/23 19:00      0.00     16.85     16.89     25799     12.73
09/23 20:00      0.00     16.96     17.05     26020     12.73
09/23 21:00      0.00     17.13     17.17     26426     12.73
09/23 22:00      0.00     17.24     17.30     26703     12.65
09/23 23:00      0.00     17.35     17.40     26980     12.65